createdAt,value
2022-11-10T00:01:22.013Z,9.70
2022-11-10T00:04:11.072Z,9.60
2022-11-10T00:06:58.458Z,9.70
2022-11-10T00:09:45.798Z,9.60
2022-11-10T00:12:36.150Z,9.60
2022-11-10T00:15:43.806Z,9.60
2022-11-10T00:18:33.408Z,9.60
2022-11-10T00:21:20.782Z,9.60
2022-11-10T00:24:08.122Z,9.60
2022-11-10T00:26:56.439Z,9.60
2022-11-10T00:29:46.510Z,9.60
2022-11-10T00:32:36.589Z,9.60
2022-11-10T00:35:24.697Z,9.60
2022-11-10T00:38:12.418Z,9.60
2022-11-10T00:41:01.314Z,9.60
2022-11-10T00:43:49.144Z,9.60
2022-11-10T00:46:36.876Z,9.60
2022-11-10T00:49:24.562Z,9.60
2022-11-10T00:52:11.296Z,9.50
2022-11-10T00:54:58.778Z,9.50
2022-11-10T00:57:46.657Z,9.50
2022-11-10T01:00:34.263Z,9.50
2022-11-10T01:03:22.638Z,9.50
2022-11-10T01:06:12.123Z,9.50
2022-11-10T01:08:58.853Z,9.50
2022-11-10T01:11:45.805Z,9.50
2022-11-10T01:14:33.024Z,9.40
2022-11-10T01:17:20.144Z,9.40
2022-11-10T01:20:08.767Z,9.40
2022-11-10T01:22:58.374Z,9.40
2022-11-10T01:25:49.054Z,9.40
2022-11-10T01:28:37.525Z,9.40
2022-11-10T01:31:24.374Z,9.30
2022-11-10T01:34:12.072Z,9.30
2022-11-10T01:37:01.970Z,9.30
2022-11-10T01:39:49.846Z,9.30
2022-11-10T01:43:03.523Z,9.30
2022-11-10T01:45:56.499Z,9.30
2022-11-10T01:49:03.613Z,9.30
2022-11-10T01:52:11.499Z,9.30
2022-11-10T01:55:02.081Z,9.30
2022-11-10T01:57:50.216Z,9.30
2022-11-10T02:00:37.000Z,9.30
2022-11-10T02:03:44.650Z,9.30
2022-11-10T02:06:36.649Z,9.30
2022-11-10T02:09:24.235Z,9.30
2022-11-10T02:12:11.678Z,9.20
2022-11-10T02:15:00.591Z,9.20
2022-11-10T02:17:51.094Z,9.30
2022-11-10T02:20:38.905Z,9.20
2022-11-10T02:23:34.044Z,9.30
2022-11-10T02:26:28.834Z,9.30
2022-11-10T02:29:16.028Z,9.30
2022-11-10T02:32:05.772Z,9.20
2022-11-10T02:34:55.531Z,9.30
2022-11-10T02:37:43.226Z,9.30
2022-11-10T02:40:29.793Z,9.30
2022-11-10T02:43:19.459Z,9.30
2022-11-10T02:46:07.074Z,9.30
2022-11-10T02:48:54.229Z,9.30
2022-11-10T02:51:40.895Z,9.30
2022-11-10T02:54:28.218Z,9.30
2022-11-10T02:57:14.849Z,9.30
2022-11-10T03:00:04.742Z,9.30
2022-11-10T03:03:02.527Z,9.30
2022-11-10T03:05:54.311Z,9.30
2022-11-10T03:08:41.471Z,9.30
2022-11-10T03:11:32.237Z,9.30
2022-11-10T03:14:23.378Z,9.30
2022-11-10T03:17:13.841Z,9.30
2022-11-10T03:20:00.707Z,9.30
2022-11-10T03:22:48.095Z,9.30
2022-11-10T03:25:35.691Z,9.30
2022-11-10T03:28:22.972Z,9.30
2022-11-10T03:31:09.785Z,9.30
2022-11-10T03:33:57.308Z,9.40
2022-11-10T03:36:44.281Z,9.40
2022-11-10T03:39:32.004Z,9.40
2022-11-10T03:42:19.109Z,9.40
2022-11-10T03:45:06.701Z,9.30
2022-11-10T03:47:53.614Z,9.40
2022-11-10T03:50:40.995Z,9.40
2022-11-10T03:53:27.994Z,9.40
2022-11-10T03:56:15.320Z,9.40
2022-11-10T03:59:02.703Z,9.40
2022-11-10T04:01:50.550Z,9.40
2022-11-10T04:04:56.120Z,9.40
2022-11-10T04:08:02.989Z,9.40
2022-11-10T04:10:52.800Z,9.40
2022-11-10T04:13:58.868Z,9.40
2022-11-10T04:16:46.475Z,9.40
2022-11-10T04:19:33.742Z,9.40
2022-11-10T04:22:41.767Z,9.40
2022-11-10T04:25:29.453Z,9.40
2022-11-10T04:28:16.421Z,9.40
2022-11-10T04:31:04.460Z,9.40
2022-11-10T04:33:52.326Z,9.40
2022-11-10T04:36:42.266Z,9.40
2022-11-10T04:39:29.423Z,9.40
2022-11-10T04:42:16.672Z,9.40
2022-11-10T04:45:04.778Z,9.40
2022-11-10T04:47:53.056Z,9.40
2022-11-10T04:50:40.252Z,9.40
2022-11-10T04:53:27.557Z,9.40
2022-11-10T04:56:19.569Z,9.40
2022-11-10T04:59:08.322Z,9.40
2022-11-10T05:01:56.207Z,9.50
2022-11-10T05:04:44.327Z,9.40
2022-11-10T05:07:34.077Z,9.40
2022-11-10T05:10:23.023Z,9.40
2022-11-10T05:13:10.802Z,9.50
2022-11-10T05:15:58.724Z,9.50
2022-11-10T05:18:45.884Z,9.50
2022-11-10T05:21:34.507Z,9.50
2022-11-10T05:24:21.739Z,9.40
2022-11-10T05:27:12.612Z,9.50
2022-11-10T05:29:59.308Z,9.40
2022-11-10T05:32:47.553Z,9.40
2022-11-10T05:35:35.175Z,9.50
2022-11-10T05:38:23.463Z,9.50
2022-11-10T05:41:10.329Z,9.50
2022-11-10T05:43:58.013Z,9.50
2022-11-10T05:46:45.029Z,9.50
2022-11-10T05:49:32.340Z,9.50
2022-11-10T05:52:19.212Z,9.50
2022-11-10T05:55:06.767Z,9.50
2022-11-10T05:57:55.272Z,9.50
2022-11-10T06:00:45.037Z,9.60
2022-11-10T06:03:32.297Z,9.60
2022-11-10T06:06:19.483Z,9.60
2022-11-10T06:09:06.464Z,9.60
2022-11-10T06:11:56.034Z,9.60
2022-11-10T06:14:42.955Z,9.60
2022-11-10T06:17:30.204Z,9.60
2022-11-10T06:20:20.088Z,9.60
2022-11-10T06:23:17.627Z,9.60
2022-11-10T06:26:05.179Z,9.50
2022-11-10T06:28:52.342Z,9.50
2022-11-10T06:31:45.622Z,9.60
2022-11-10T06:34:33.624Z,9.60
2022-11-10T06:37:23.573Z,9.60
2022-11-10T06:40:16.821Z,9.60
2022-11-10T06:43:16.189Z,9.60
2022-11-10T06:46:06.052Z,9.60
2022-11-10T06:48:56.713Z,9.60
2022-11-10T06:51:47.576Z,9.60
2022-11-10T06:54:34.443Z,9.60
2022-11-10T06:57:23.947Z,9.60
2022-11-10T07:00:11.838Z,9.60
2022-11-10T07:03:15.708Z,9.70
2022-11-10T07:08:49.831Z,9.60
2022-11-10T07:11:36.445Z,9.70
2022-11-10T07:14:24.637Z,9.70
2022-11-10T07:17:12.169Z,9.70
2022-11-10T07:20:00.149Z,9.70
2022-11-10T07:22:47.022Z,9.70
2022-11-10T07:25:38.463Z,9.70
2022-11-10T07:28:28.351Z,9.70
2022-11-10T07:31:15.874Z,9.70
2022-11-10T07:34:02.878Z,9.70
2022-11-10T07:36:49.976Z,9.70
2022-11-10T07:39:37.325Z,9.80
2022-11-10T07:42:24.407Z,9.80
2022-11-10T07:45:11.561Z,9.80
2022-11-10T07:48:02.885Z,9.80
2022-11-10T07:50:51.260Z,9.80
2022-11-10T07:53:41.864Z,9.80
2022-11-10T07:56:31.833Z,9.80
2022-11-10T07:59:19.683Z,9.80
2022-11-10T08:02:09.226Z,9.80
2022-11-10T08:04:57.419Z,9.90
2022-11-10T08:07:47.049Z,9.90
2022-11-10T08:10:36.369Z,9.90
2022-11-10T08:13:23.528Z,9.90
2022-11-10T08:16:11.276Z,9.90
2022-11-10T08:18:58.459Z,9.90
2022-11-10T08:21:46.108Z,9.90
2022-11-10T08:24:36.690Z,9.90
2022-11-10T08:27:26.843Z,9.90
2022-11-10T08:30:14.248Z,10.00
2022-11-10T08:33:03.262Z,10.00
2022-11-10T08:35:52.047Z,10.00
2022-11-10T08:38:39.078Z,10.00
2022-11-10T08:41:25.950Z,10.00
2022-11-10T08:44:19.622Z,10.00
2022-11-10T08:47:10.019Z,10.00
2022-11-10T08:49:57.248Z,10.10
2022-11-10T08:52:43.852Z,10.10
2022-11-10T08:55:31.121Z,10.10
2022-11-10T08:58:26.021Z,10.10
2022-11-10T09:01:13.202Z,10.20
2022-11-10T09:03:59.783Z,10.20
2022-11-10T09:06:47.379Z,10.20
2022-11-10T09:09:34.638Z,10.20
2022-11-10T09:12:28.046Z,10.30
2022-11-10T09:15:15.175Z,10.30
2022-11-10T09:18:04.052Z,10.40
2022-11-10T09:20:50.904Z,10.40
2022-11-10T09:23:38.275Z,10.40
2022-11-10T09:26:24.940Z,10.40
2022-11-10T09:29:11.816Z,10.50
2022-11-10T09:32:01.642Z,10.50
2022-11-10T09:34:52.959Z,10.50
2022-11-10T09:37:40.716Z,10.60
2022-11-10T09:40:36.998Z,10.60
2022-11-10T09:43:34.078Z,10.60
2022-11-10T09:46:32.683Z,10.60
2022-11-10T09:49:46.895Z,10.70
2022-11-10T09:52:36.711Z,10.70
2022-11-10T09:55:46.720Z,10.70
2022-11-10T09:58:41.043Z,10.70
2022-11-10T10:01:51.958Z,10.70
2022-11-10T10:05:13.189Z,10.70
2022-11-10T10:08:06.822Z,10.70
2022-11-10T10:11:15.321Z,10.70
2022-11-10T10:14:09.532Z,10.80
2022-11-10T10:17:15.490Z,10.80
2022-11-10T10:20:28.118Z,10.90
2022-11-10T10:23:40.370Z,10.90
2022-11-10T10:26:37.441Z,11.00
2022-11-10T10:29:30.887Z,11.00
2022-11-10T10:32:24.173Z,11.10
2022-11-10T10:35:15.965Z,11.10
2022-11-10T10:38:04.889Z,11.10
2022-11-10T10:40:53.384Z,11.10
2022-11-10T10:43:46.663Z,11.10
2022-11-10T10:46:46.649Z,11.10
2022-11-10T10:49:37.155Z,11.10
2022-11-10T10:52:25.556Z,11.20
2022-11-10T10:55:14.276Z,11.10
2022-11-10T10:58:24.843Z,11.10
2022-11-10T11:01:18.442Z,11.20
2022-11-10T11:04:29.359Z,11.20
2022-11-10T11:07:24.872Z,11.20
2022-11-10T11:10:34.061Z,11.20
2022-11-10T11:13:28.237Z,11.20
2022-11-10T11:16:15.500Z,11.20
2022-11-10T11:19:01.884Z,11.20
2022-11-10T11:21:59.501Z,11.20
2022-11-10T11:25:07.491Z,11.20
2022-11-10T11:28:12.622Z,11.20
2022-11-10T11:31:24.158Z,11.20
2022-11-10T11:34:21.853Z,11.30
2022-11-10T11:37:19.577Z,11.30
2022-11-10T11:40:39.418Z,11.30
2022-11-10T11:43:56.601Z,11.30
2022-11-10T11:46:52.364Z,11.30
2022-11-10T11:50:17.122Z,11.30
2022-11-10T11:53:16.178Z,11.20
2022-11-10T11:56:26.319Z,11.20
2022-11-10T11:59:13.312Z,11.20
2022-11-10T12:02:24.202Z,11.20
2022-11-10T12:05:37.014Z,11.20
2022-11-10T12:09:12.859Z,11.20
2022-11-10T12:12:27.005Z,11.30
2022-11-10T12:15:29.894Z,11.30
2022-11-10T12:18:17.163Z,11.30
2022-11-10T12:21:22.454Z,11.30
2022-11-10T12:24:18.664Z,11.30
2022-11-10T12:27:21.161Z,11.30
2022-11-10T12:30:13.908Z,11.30
2022-11-10T12:33:38.141Z,11.20
2022-11-10T12:36:27.976Z,11.30
2022-11-10T12:39:24.638Z,11.30
2022-11-10T12:42:24.536Z,11.30
2022-11-10T12:45:22.171Z,11.30
2022-11-10T12:48:12.779Z,11.30
2022-11-10T12:51:21.926Z,11.40
2022-11-10T12:54:17.039Z,11.40
2022-11-10T12:57:05.694Z,11.40
2022-11-10T13:00:27.802Z,11.40
2022-11-10T13:03:28.945Z,11.50
2022-11-10T13:06:40.553Z,11.50
2022-11-10T13:09:31.382Z,11.50
2022-11-10T13:12:24.032Z,11.50
2022-11-10T13:15:50.889Z,11.40
2022-11-10T13:18:38.505Z,11.50
2022-11-10T13:21:53.952Z,11.60
2022-11-10T13:24:43.415Z,11.50
2022-11-10T13:27:36.066Z,11.60
2022-11-10T13:30:45.118Z,11.60
2022-11-10T13:33:36.972Z,11.60
2022-11-10T13:36:53.371Z,11.60
2022-11-10T13:39:40.276Z,11.60
2022-11-10T13:42:27.688Z,11.60
2022-11-10T13:45:32.228Z,11.60
2022-11-10T13:48:18.954Z,11.60
2022-11-10T13:51:19.637Z,11.60
2022-11-10T13:54:20.513Z,11.60
2022-11-10T13:57:35.907Z,11.60
2022-11-10T14:00:26.114Z,11.60
2022-11-10T14:03:50.418Z,11.60
2022-11-10T14:06:37.081Z,11.60
2022-11-10T14:09:35.309Z,11.50
2022-11-10T14:12:40.034Z,11.50
2022-11-10T14:15:40.197Z,11.50
2022-11-10T14:18:37.707Z,11.50
2022-11-10T14:21:38.725Z,11.50
2022-11-10T14:24:30.686Z,11.50
2022-11-10T14:27:27.287Z,11.50
2022-11-10T14:30:24.965Z,11.50
2022-11-10T14:33:14.341Z,11.50
2022-11-10T14:36:06.042Z,11.50
2022-11-10T14:38:52.905Z,11.40
2022-11-10T14:41:47.570Z,11.40
2022-11-10T14:44:35.147Z,11.40
2022-11-10T14:47:27.744Z,11.40
2022-11-10T14:50:14.236Z,11.40
2022-11-10T14:53:21.687Z,11.40
2022-11-10T14:56:16.931Z,11.30
2022-11-10T14:59:06.578Z,11.30
2022-11-10T15:01:59.346Z,11.30
2022-11-10T15:04:51.939Z,11.30
2022-11-10T15:07:38.468Z,11.30
2022-11-10T15:10:28.842Z,11.30
2022-11-10T15:13:15.248Z,11.20
2022-11-10T15:16:25.625Z,11.30
2022-11-10T15:19:32.587Z,11.20
2022-11-10T15:22:30.074Z,11.20
2022-11-10T15:25:19.456Z,11.20
2022-11-10T15:28:22.116Z,11.20
2022-11-10T15:31:12.689Z,11.10
2022-11-10T15:34:01.706Z,11.10
2022-11-10T15:36:48.166Z,11.10
2022-11-10T15:39:36.733Z,11.10
2022-11-10T15:42:25.086Z,11.10
2022-11-10T15:45:11.980Z,11.10
2022-11-10T15:47:58.597Z,11.10
2022-11-10T15:50:50.293Z,11.10
2022-11-10T15:53:55.293Z,11.10
2022-11-10T15:56:42.198Z,11.10
2022-11-10T15:59:29.244Z,11.00
2022-11-10T16:02:26.167Z,11.00
2022-11-10T16:05:13.448Z,11.00
2022-11-10T16:08:00.457Z,11.00
2022-11-10T16:10:50.682Z,10.90
2022-11-10T16:13:37.789Z,10.90
2022-11-10T16:16:25.145Z,10.90
2022-11-10T16:19:12.829Z,10.90
2022-11-10T16:21:59.264Z,10.90
2022-11-10T16:24:46.324Z,10.90
2022-11-10T16:27:33.576Z,10.90
2022-11-10T16:30:20.599Z,10.90
2022-11-10T16:33:07.237Z,10.90
2022-11-10T16:35:55.731Z,10.90
2022-11-10T16:38:42.143Z,10.90
2022-11-10T16:41:28.895Z,10.80
2022-11-10T16:44:17.017Z,10.80
2022-11-10T16:47:04.192Z,10.80
2022-11-10T16:49:51.194Z,10.90
2022-11-10T16:52:39.631Z,10.80
2022-11-10T16:55:26.208Z,10.80
2022-11-10T16:58:12.824Z,10.80
2022-11-10T17:01:01.547Z,10.80
2022-11-10T17:03:51.592Z,10.80
2022-11-10T17:06:38.302Z,10.80
2022-11-10T17:09:26.927Z,10.70
2022-11-10T17:12:14.875Z,10.70
2022-11-10T17:15:01.935Z,10.70
2022-11-10T17:17:53.987Z,10.70
2022-11-10T17:20:45.028Z,10.70
2022-11-10T17:23:33.698Z,10.70
2022-11-10T17:26:22.092Z,10.60
2022-11-10T17:29:18.774Z,10.70
2022-11-10T17:32:05.799Z,10.70
2022-11-10T17:34:52.013Z,10.70
2022-11-10T17:37:40.590Z,10.70
2022-11-10T17:40:29.320Z,10.70
2022-11-10T17:43:16.755Z,10.70
2022-11-10T17:46:03.580Z,10.60
2022-11-10T17:48:50.442Z,10.60
2022-11-10T17:51:37.739Z,10.60
2022-11-10T17:54:25.686Z,10.50
2022-11-10T17:57:12.147Z,10.50
2022-11-10T17:59:59.112Z,10.50
2022-11-10T18:02:51.210Z,10.50
2022-11-10T18:05:42.061Z,10.50
2022-11-10T18:08:29.256Z,10.50
2022-11-10T18:11:18.539Z,10.40
2022-11-10T18:14:05.085Z,10.40
2022-11-10T18:16:52.857Z,10.30
2022-11-10T18:19:39.884Z,10.30
2022-11-10T18:22:27.059Z,10.30
2022-11-10T18:25:13.552Z,10.20
2022-11-10T18:28:00.534Z,10.20
2022-11-10T18:30:47.504Z,10.10
2022-11-10T18:33:34.824Z,10.20
2022-11-10T18:36:21.534Z,10.10
2022-11-10T18:39:08.414Z,10.10
2022-11-10T18:41:55.048Z,10.10
2022-11-10T18:44:42.493Z,10.10
2022-11-10T18:47:29.270Z,10.00
2022-11-10T18:50:17.402Z,10.00
2022-11-10T18:53:04.490Z,9.90
2022-11-10T18:55:57.698Z,9.90
2022-11-10T18:58:44.705Z,9.90
2022-11-10T19:01:32.065Z,9.90
2022-11-10T19:04:18.860Z,9.90
2022-11-10T19:07:06.278Z,9.80
2022-11-10T19:09:53.245Z,9.80
2022-11-10T19:12:42.658Z,9.80
2022-11-10T19:15:29.297Z,9.80
2022-11-10T19:18:16.479Z,9.70
2022-11-10T19:21:06.089Z,9.70
2022-11-10T19:23:57.615Z,9.60
2022-11-10T19:26:44.343Z,9.70
2022-11-10T19:29:31.582Z,9.60
2022-11-10T19:32:23.638Z,9.60
2022-11-10T19:35:13.595Z,9.60
2022-11-10T19:38:02.486Z,9.60
2022-11-10T19:40:49.815Z,9.50
2022-11-10T19:43:47.119Z,9.50
2022-11-10T19:46:36.963Z,9.50
2022-11-10T19:49:23.864Z,9.50
2022-11-10T19:52:10.605Z,9.50
2022-11-10T19:54:57.402Z,9.40
2022-11-10T19:57:44.261Z,9.40
2022-11-10T20:00:30.904Z,9.40
2022-11-10T20:03:17.763Z,9.40
2022-11-10T20:06:07.426Z,9.30
2022-11-10T20:08:55.371Z,9.30
2022-11-10T20:11:41.900Z,9.30
2022-11-10T20:14:28.829Z,9.30
2022-11-10T20:17:15.653Z,9.20
2022-11-10T20:20:02.333Z,9.20
2022-11-10T20:22:49.067Z,9.20
2022-11-10T20:25:36.077Z,9.20
2022-11-10T20:28:25.358Z,9.20
2022-11-10T20:31:24.665Z,9.20
2022-11-10T20:34:11.508Z,9.20
2022-11-10T20:36:58.118Z,9.20
2022-11-10T20:39:44.905Z,9.20
2022-11-10T20:42:32.509Z,9.20
2022-11-10T20:45:18.956Z,9.20
2022-11-10T20:48:06.073Z,9.20
2022-11-10T20:50:52.781Z,9.20
2022-11-10T20:53:40.458Z,9.30
2022-11-10T20:56:30.492Z,9.30
2022-11-10T20:59:20.363Z,9.30
2022-11-10T21:02:35.378Z,9.30
2022-11-10T21:05:23.434Z,9.30
2022-11-10T21:08:13.102Z,9.30
2022-11-10T21:11:03.492Z,9.30
2022-11-10T21:13:50.168Z,9.30
2022-11-10T21:16:37.432Z,9.40
2022-11-10T21:19:23.962Z,9.40
2022-11-10T21:22:10.772Z,9.40
2022-11-10T21:24:57.396Z,9.40
2022-11-10T21:27:44.257Z,9.40
2022-11-10T21:30:31.210Z,9.40
2022-11-10T21:33:18.978Z,9.40
2022-11-10T21:36:08.601Z,9.40
2022-11-10T21:38:55.853Z,9.40
2022-11-10T21:41:42.371Z,9.40
2022-11-10T21:44:29.488Z,9.40
2022-11-10T21:47:16.611Z,9.30
2022-11-10T21:50:04.946Z,9.30
2022-11-10T21:52:51.377Z,9.30
2022-11-10T21:55:38.218Z,9.40
2022-11-10T21:58:24.672Z,9.30
2022-11-10T22:01:14.688Z,9.30
2022-11-10T22:04:01.691Z,9.20
2022-11-10T22:07:07.378Z,9.20
2022-11-10T22:10:15.093Z,9.10
2022-11-10T22:13:23.811Z,9.10
2022-11-10T22:16:50.708Z,9.10
2022-11-10T22:19:38.044Z,9.00
2022-11-10T22:22:24.867Z,8.90
2022-11-10T22:25:12.152Z,8.80
2022-11-10T22:27:58.730Z,8.80
2022-11-10T22:30:45.539Z,8.80
2022-11-10T22:33:36.802Z,8.70
2022-11-10T22:36:23.604Z,8.70
2022-11-10T22:39:10.419Z,8.60
2022-11-10T22:42:15.454Z,8.60
2022-11-10T22:45:02.100Z,8.60
2022-11-10T22:48:07.550Z,8.60
2022-11-10T22:50:55.621Z,8.50
2022-11-10T22:53:42.423Z,8.50
2022-11-10T22:56:30.966Z,8.40
2022-11-10T22:59:19.195Z,8.30
2022-11-10T23:02:05.825Z,8.30
2022-11-10T23:04:52.822Z,8.20
2022-11-10T23:07:39.590Z,8.20
2022-11-10T23:10:26.535Z,8.10
2022-11-10T23:13:14.835Z,8.10
2022-11-10T23:16:13.232Z,8.00
2022-11-10T23:19:00.112Z,8.00
2022-11-10T23:21:46.860Z,8.00
2022-11-10T23:24:33.686Z,7.90
2022-11-10T23:27:20.856Z,7.90
2022-11-10T23:30:07.577Z,7.90
2022-11-10T23:32:55.517Z,7.80
2022-11-10T23:35:42.352Z,7.80
2022-11-10T23:38:34.958Z,7.70
2022-11-10T23:41:27.002Z,7.70
2022-11-10T23:44:14.058Z,7.70
2022-11-10T23:47:00.721Z,7.70
2022-11-10T23:49:47.719Z,7.60
2022-11-10T23:52:35.333Z,7.60
2022-11-10T23:55:22.088Z,7.60
2022-11-10T23:58:08.985Z,7.50
